Terminal Aerodrome Forecast
Issued by NWS

Home | Current Version | Previous Version | Text Only | Print | Product List | Glossary On
Versions: 1 2 3 4 5 6 7 8 9 10 11 12 13 14 15 16
876
FTUS42 KTAE 190520
TAFDHN
TAF
KDHN 190520Z 1906/2006 19003KT 4SM BR SCT002 BKN250
     FM190800 VRB03KT 1/4SM FG BKN002
     FM191600 18007KT P6SM SCT040
     FM200400 19008KT P6SM -SHRA BKN007=

USA.gov is the U.S. government's official web portal to all federal, state and local government web resources and services.